createdAt,value
2018-04-25T00:01:45.124Z,13.40
2018-04-25T00:04:12.467Z,13.40
2018-04-25T00:06:38.813Z,13.40
2018-04-25T00:09:06.376Z,13.20
2018-04-25T00:11:33.143Z,13.20
2018-04-25T00:13:59.885Z,13.20
2018-04-25T00:16:26.112Z,13.20
2018-04-25T00:18:52.319Z,13.20
2018-04-25T00:21:19.009Z,13.30
2018-04-25T00:23:46.555Z,13.20
2018-04-25T00:26:14.149Z,13.10
2018-04-25T00:28:40.989Z,13.10
2018-04-25T00:31:07.981Z,13.10
2018-04-25T00:33:35.184Z,13.10
2018-04-25T00:36:01.455Z,13.10
2018-04-25T00:38:28.510Z,13.00
2018-04-25T00:40:55.900Z,13.00
2018-04-25T00:43:22.890Z,12.90
2018-04-25T00:45:49.107Z,12.80
2018-04-25T00:48:15.345Z,12.80
2018-04-25T00:50:41.573Z,12.80
2018-04-25T00:53:07.790Z,12.80
2018-04-25T00:55:34.029Z,12.80
2018-04-25T00:58:00.516Z,12.80
2018-04-25T01:00:28.105Z,12.70
2018-04-25T01:02:54.343Z,12.70
2018-04-25T01:05:20.614Z,12.70
2018-04-25T01:07:46.900Z,12.70
2018-04-25T01:10:14.689Z,12.70
2018-04-25T01:12:41.720Z,12.60
2018-04-25T01:15:07.948Z,12.60
2018-04-25T01:17:34.836Z,12.60
2018-04-25T01:20:01.802Z,12.60
2018-04-25T01:22:28.048Z,12.60
2018-04-25T01:24:55.978Z,12.60
2018-04-25T01:27:22.968Z,12.60
2018-04-25T01:29:49.187Z,12.50
2018-04-25T01:32:16.256Z,12.50
2018-04-25T01:35:01.781Z,12.60
2018-04-25T01:40:32.041Z,12.60
2018-04-25T01:42:58.257Z,12.50
2018-04-25T01:45:26.081Z,12.50
2018-04-25T01:47:58.785Z,12.40
2018-04-25T01:50:42.102Z,12.50
2018-04-25T01:53:21.999Z,12.40
2018-04-25T01:56:01.591Z,12.40
2018-04-25T01:58:40.045Z,12.50
2018-04-25T02:01:19.324Z,12.40
2018-04-25T02:03:48.237Z,12.40
2018-04-25T02:06:15.611Z,12.40
2018-04-25T02:08:42.553Z,12.30
2018-04-25T02:11:10.172Z,12.20
2018-04-25T02:13:36.886Z,12.20
2018-04-25T02:16:03.400Z,12.30
2018-04-25T02:18:35.332Z,12.30
2018-04-25T02:21:02.458Z,12.30
2018-04-25T02:23:29.328Z,12.30
2018-04-25T02:25:55.531Z,12.30
2018-04-25T02:28:21.760Z,12.30
2018-04-25T02:30:47.980Z,12.30
2018-04-25T02:33:14.875Z,12.20
2018-04-25T02:35:42.896Z,12.10
2018-04-25T02:38:09.707Z,12.10
2018-04-25T02:40:36.402Z,12.10
2018-04-25T02:43:03.593Z,12.00
2018-04-25T02:45:29.901Z,12.10
2018-04-25T02:47:56.847Z,12.10
2018-04-25T02:50:24.797Z,12.10
2018-04-25T02:52:51.660Z,12.10
2018-04-25T02:55:19.137Z,12.00
2018-04-25T02:57:46.299Z,12.00
2018-04-25T03:00:12.501Z,12.00
2018-04-25T03:02:38.703Z,12.00
2018-04-25T03:05:04.971Z,11.90
2018-04-25T03:07:31.652Z,11.90
2018-04-25T03:09:58.343Z,12.00
2018-04-25T03:12:24.982Z,11.90
2018-04-25T03:14:51.990Z,12.00
2018-04-25T03:17:18.957Z,11.90
2018-04-25T03:19:45.889Z,11.80
2018-04-25T03:22:13.429Z,11.90
2018-04-25T03:24:40.639Z,11.80
2018-04-25T03:27:07.356Z,11.80
2018-04-25T03:29:34.149Z,11.80
2018-04-25T03:32:00.916Z,11.80
2018-04-25T03:34:28.455Z,11.80
2018-04-25T03:36:54.655Z,11.80
2018-04-25T03:39:21.867Z,11.90
2018-04-25T03:41:48.805Z,11.80
2018-04-25T03:44:16.160Z,11.90
2018-04-25T03:46:44.070Z,11.90
2018-04-25T03:49:10.621Z,11.90
2018-04-25T03:51:37.667Z,11.90
2018-04-25T03:54:04.471Z,11.90
2018-04-25T03:56:30.996Z,11.80
2018-04-25T03:58:58.482Z,12.00
2018-04-25T04:01:25.275Z,12.00
2018-04-25T04:03:52.502Z,12.00
2018-04-25T04:06:19.020Z,11.90
2018-04-25T04:08:46.025Z,12.00
2018-04-25T04:11:13.277Z,11.90
2018-04-25T04:13:40.035Z,11.90
2018-04-25T04:16:06.877Z,11.90
2018-04-25T04:18:33.096Z,11.90
2018-04-25T04:20:59.890Z,12.00
2018-04-25T04:23:26.629Z,12.00
2018-04-25T04:25:53.575Z,11.90
2018-04-25T04:28:20.345Z,12.10
2018-04-25T04:30:47.292Z,12.20
2018-04-25T04:33:14.256Z,12.10
2018-04-25T04:35:40.653Z,12.10
2018-04-25T04:38:08.107Z,12.20
2018-04-25T04:40:35.651Z,12.30
2018-04-25T04:43:03.642Z,12.20
2018-04-25T04:45:31.186Z,12.30
2018-04-25T04:47:58.391Z,12.30
2018-04-25T04:50:24.567Z,12.30
2018-04-25T04:52:51.465Z,12.20
2018-04-25T04:55:18.474Z,12.50
2018-04-25T04:57:45.469Z,12.60
2018-04-25T05:00:12.265Z,12.60
2018-04-25T05:02:40.237Z,12.90
2018-04-25T05:05:06.432Z,12.90
2018-04-25T05:07:33.616Z,13.20
2018-04-25T05:10:00.013Z,13.50
2018-04-25T05:12:27.037Z,13.90
2018-04-25T05:14:53.339Z,13.90
2018-04-25T05:17:20.491Z,14.10
2018-04-25T05:19:46.670Z,14.20
2018-04-25T05:22:12.876Z,14.40
2018-04-25T05:24:39.226Z,14.70
2018-04-25T05:27:05.559Z,14.90
2018-04-25T05:29:33.327Z,15.40
2018-04-25T05:32:01.008Z,15.40
2018-04-25T05:34:27.185Z,15.40
2018-04-25T05:36:53.538Z,15.30
2018-04-25T05:39:21.058Z,15.30
2018-04-25T05:41:47.263Z,15.30
2018-04-25T05:44:15.381Z,15.20
2018-04-25T05:46:42.253Z,15.10
2018-04-25T05:49:09.451Z,15.10
2018-04-25T05:51:36.333Z,15.10
2018-04-25T05:54:03.610Z,15.10
2018-04-25T05:56:31.090Z,15.20
2018-04-25T05:58:57.831Z,15.20
2018-04-25T06:01:24.288Z,15.10
2018-04-25T06:03:50.856Z,15.20
2018-04-25T06:06:17.835Z,15.20
2018-04-25T06:08:45.359Z,15.40
2018-04-25T06:11:11.933Z,15.30
2018-04-25T06:13:39.121Z,15.80
2018-04-25T06:16:07.179Z,16.00
2018-04-25T06:18:33.922Z,15.90
2018-04-25T06:21:00.640Z,16.20
2018-04-25T06:23:26.898Z,16.60
2018-04-25T06:25:53.317Z,17.20
2018-04-25T06:28:20.919Z,17.90
2018-04-25T06:30:47.511Z,17.80
2018-04-25T06:33:13.798Z,18.20
2018-04-25T06:35:40.745Z,17.80
2018-04-25T06:38:08.939Z,17.80
2018-04-25T06:40:35.129Z,17.80
2018-04-25T06:43:01.315Z,17.80
2018-04-25T06:45:28.215Z,17.70
2018-04-25T06:47:55.128Z,18.00
2018-04-25T06:50:21.569Z,18.00
2018-04-25T06:52:49.015Z,18.10
2018-04-25T06:55:16.036Z,18.10
2018-04-25T06:57:42.332Z,18.50
2018-04-25T07:00:09.790Z,19.00
2018-04-25T07:02:37.757Z,19.00
2018-04-25T07:05:04.671Z,19.20
2018-04-25T07:07:31.510Z,19.20
2018-04-25T07:09:58.290Z,19.50
2018-04-25T07:12:32.164Z,20.10
2018-04-25T07:14:58.551Z,20.00
2018-04-25T07:17:26.842Z,21.20
2018-04-25T07:19:53.501Z,21.20
2018-04-25T07:22:21.058Z,21.80
2018-04-25T07:24:47.319Z,21.80
2018-04-25T07:27:14.412Z,22.30
2018-04-25T07:29:42.272Z,21.60
2018-04-25T07:32:09.724Z,21.60
2018-04-25T07:34:35.915Z,21.20
2018-04-25T07:37:02.900Z,20.90
2018-04-25T07:39:29.089Z,20.90
2018-04-25T07:41:57.058Z,21.00
2018-04-25T07:44:23.846Z,20.90
2018-04-25T07:46:50.271Z,21.40
2018-04-25T07:49:17.055Z,21.80
2018-04-25T07:51:43.226Z,22.00
2018-04-25T07:54:10.108Z,22.00
2018-04-25T07:56:36.901Z,22.30
2018-04-25T07:59:03.094Z,22.70
2018-04-25T08:01:30.069Z,22.60
2018-04-25T08:03:57.556Z,21.80
2018-04-25T08:06:24.700Z,21.80
2018-04-25T08:08:51.521Z,21.80
2018-04-25T08:11:17.716Z,22.00
2018-04-25T08:13:57.098Z,22.30
2018-04-25T08:16:36.215Z,22.60
2018-04-25T08:19:15.831Z,22.80
2018-04-25T08:21:42.036Z,22.90
2018-04-25T08:24:09.420Z,23.20
2018-04-25T08:26:36.906Z,23.80
2018-04-25T08:29:04.033Z,23.80
2018-04-25T08:31:31.565Z,23.50
2018-04-25T08:33:57.740Z,23.50
2018-04-25T08:36:24.645Z,23.50
2018-04-25T08:38:52.149Z,24.00
2018-04-25T08:41:18.337Z,23.90
2018-04-25T08:43:45.268Z,24.60
2018-04-25T08:46:11.458Z,24.50
2018-04-25T08:48:38.198Z,24.50
2018-04-25T08:51:05.438Z,24.40
2018-04-25T08:53:32.740Z,24.60
2018-04-25T08:55:58.915Z,24.80
2018-04-25T08:58:26.073Z,25.10
2018-04-25T09:00:52.785Z,25.40
2018-04-25T09:03:20.802Z,25.50
2018-04-25T09:05:48.202Z,25.40
2018-04-25T09:08:14.541Z,25.50
2018-04-25T09:10:42.130Z,25.80
2018-04-25T09:15:48.397Z,25.40
2018-04-25T09:18:15.131Z,24.50
2018-04-25T09:20:42.997Z,24.90
2018-04-25T09:23:09.174Z,25.30
2018-04-25T09:25:36.012Z,25.60
2018-04-25T09:28:02.436Z,25.90
2018-04-25T09:30:28.641Z,26.20
2018-04-25T09:32:54.844Z,26.20
2018-04-25T09:35:21.760Z,25.90
2018-04-25T09:37:48.201Z,25.80
2018-04-25T09:40:15.142Z,26.20
2018-04-25T09:42:41.758Z,26.20
2018-04-25T09:45:08.903Z,26.10
2018-04-25T09:47:36.299Z,25.80
2018-04-25T09:50:03.475Z,25.60
2018-04-25T09:52:31.406Z,25.40
2018-04-25T09:54:59.717Z,25.30
2018-04-25T09:57:26.023Z,25.30
2018-04-25T09:59:53.089Z,25.30
2018-04-25T10:02:25.361Z,25.50
2018-04-25T10:04:52.220Z,25.60
2018-04-25T10:07:18.439Z,25.70
2018-04-25T10:09:44.613Z,25.50
2018-04-25T10:12:11.033Z,25.60
2018-04-25T10:14:37.208Z,25.50
2018-04-25T10:17:04.660Z,25.20
2018-04-25T10:19:31.353Z,25.30
2018-04-25T10:21:57.516Z,25.40
2018-04-25T10:24:24.456Z,24.90
2018-04-25T10:26:52.012Z,24.90
2018-04-25T10:29:18.980Z,25.00
2018-04-25T10:31:45.341Z,25.00
2018-04-25T10:34:13.516Z,24.90
2018-04-25T10:36:40.532Z,24.70
2018-04-25T10:39:07.794Z,24.70
2018-04-25T10:41:34.611Z,24.90
2018-04-25T10:44:02.079Z,25.10
2018-04-25T10:46:28.279Z,25.10
2018-04-25T10:48:55.336Z,24.90
2018-04-25T10:51:22.264Z,24.60
2018-04-25T10:53:48.428Z,24.60
2018-04-25T10:56:15.011Z,24.40
2018-04-25T10:58:42.375Z,24.20
2018-04-25T11:01:09.978Z,24.20
2018-04-25T11:03:36.519Z,24.20
2018-04-25T11:06:04.237Z,24.50
2018-04-25T11:08:30.727Z,24.40
2018-04-25T11:10:57.555Z,24.60
2018-04-25T11:13:24.415Z,24.60
2018-04-25T11:15:51.234Z,24.50
2018-04-25T11:18:17.461Z,24.50
2018-04-25T11:20:44.219Z,24.30
2018-04-25T11:23:10.960Z,24.30
2018-04-25T11:25:37.223Z,24.20
2018-04-25T11:28:03.907Z,24.40
2018-04-25T11:30:30.764Z,24.70
2018-04-25T11:32:57.004Z,24.50
2018-04-25T11:35:24.226Z,24.40
2018-04-25T11:37:51.792Z,24.40
2018-04-25T11:40:18.843Z,24.50
2018-04-25T11:42:45.077Z,24.40
2018-04-25T11:45:12.445Z,24.80
2018-04-25T11:47:39.188Z,25.10
2018-04-25T11:50:05.422Z,25.20
2018-04-25T11:52:31.600Z,25.50
2018-04-25T11:54:59.695Z,26.00
2018-04-25T11:57:26.038Z,25.90
2018-04-25T11:59:52.747Z,26.00
2018-04-25T12:02:20.245Z,25.50
2018-04-25T12:04:46.960Z,25.50
2018-04-25T12:07:13.781Z,25.40
2018-04-25T12:09:41.696Z,25.20
2018-04-25T12:12:09.042Z,25.20
2018-04-25T12:14:35.808Z,25.00
2018-04-25T12:17:02.539Z,25.10
2018-04-25T12:19:29.529Z,25.10
2018-04-25T12:21:56.466Z,25.00
2018-04-25T12:24:24.454Z,25.00
2018-04-25T12:26:51.597Z,24.90
2018-04-25T12:29:19.115Z,24.90
2018-04-25T12:31:45.545Z,24.70
2018-04-25T12:34:13.582Z,24.50
2018-04-25T12:36:40.317Z,24.50
2018-04-25T12:39:06.853Z,24.50
2018-04-25T12:41:34.428Z,24.80
2018-04-25T12:44:01.426Z,24.80
2018-04-25T12:46:28.348Z,24.70
2018-04-25T12:48:54.546Z,24.70
2018-04-25T12:51:20.723Z,24.90
2018-04-25T12:53:48.319Z,25.10
2018-04-25T12:56:14.869Z,25.10
2018-04-25T12:58:43.397Z,25.20
2018-04-25T13:01:10.356Z,25.30
2018-04-25T13:03:37.550Z,25.40
2018-04-25T13:06:04.380Z,25.30
2018-04-25T13:08:31.149Z,25.60
2018-04-25T13:10:57.891Z,25.70
2018-04-25T13:13:24.293Z,25.80
2018-04-25T13:15:51.183Z,25.70
2018-04-25T13:18:18.724Z,25.70
2018-04-25T13:20:45.720Z,25.70
2018-04-25T13:23:11.949Z,25.50
2018-04-25T13:25:38.145Z,25.50
2018-04-25T13:28:05.514Z,25.70
2018-04-25T13:30:33.787Z,25.80
2018-04-25T13:33:07.700Z,25.90
2018-04-25T13:35:34.662Z,26.00
2018-04-25T13:38:01.808Z,26.00
2018-04-25T13:40:27.997Z,26.00
2018-04-25T13:42:54.177Z,26.20
2018-04-25T13:45:21.564Z,26.40
2018-04-25T13:47:48.355Z,26.30
2018-04-25T13:50:14.795Z,26.30
2018-04-25T13:52:41.013Z,26.60
2018-04-25T13:55:07.212Z,26.80
2018-04-25T13:57:33.991Z,26.60
2018-04-25T14:00:00.600Z,26.30
2018-04-25T14:02:27.534Z,26.10
2018-04-25T14:04:54.104Z,26.10
2018-04-25T14:07:20.281Z,26.00
2018-04-25T14:09:48.766Z,25.70
2018-04-25T14:12:15.785Z,25.50
2018-04-25T14:14:42.582Z,25.40
2018-04-25T14:17:10.521Z,25.20
2018-04-25T14:19:37.989Z,25.10
2018-04-25T14:22:05.102Z,24.70
2018-04-25T14:24:31.311Z,24.70
2018-04-25T14:26:58.224Z,24.60
2018-04-25T14:29:25.529Z,24.60
2018-04-25T14:31:52.182Z,24.50
2018-04-25T14:34:19.344Z,24.50
2018-04-25T14:36:46.536Z,24.60
2018-04-25T14:39:12.729Z,24.40
2018-04-25T14:41:39.671Z,24.30
2018-04-25T14:44:05.885Z,24.40
2018-04-25T14:46:32.317Z,24.40
2018-04-25T14:48:59.279Z,24.40
2018-04-25T14:51:26.042Z,24.40
2018-04-25T14:53:52.575Z,24.50
2018-04-25T14:56:19.643Z,24.50
2018-04-25T14:58:46.401Z,24.40
2018-04-25T15:01:12.704Z,24.50
2018-04-25T15:03:39.209Z,24.50
2018-04-25T15:06:06.676Z,24.50
2018-04-25T15:08:34.195Z,24.50
2018-04-25T15:11:00.675Z,24.50
2018-04-25T15:13:28.509Z,24.50
2018-04-25T15:15:54.788Z,24.30
2018-04-25T15:18:21.910Z,24.20
2018-04-25T15:20:48.673Z,24.20
2018-04-25T15:23:14.844Z,24.20
2018-04-25T15:25:41.072Z,24.20
2018-04-25T15:28:07.484Z,24.10
2018-04-25T15:30:36.018Z,24.10
2018-04-25T15:33:03.921Z,24.10
2018-04-25T15:35:30.101Z,24.10
2018-04-25T15:37:56.419Z,24.10
2018-04-25T15:40:23.256Z,24.00
2018-04-25T15:42:49.455Z,24.00
2018-04-25T15:45:16.077Z,23.90
2018-04-25T15:47:42.328Z,23.90
2018-04-25T15:50:08.512Z,23.90
2018-04-25T15:52:35.436Z,23.80
2018-04-25T15:55:01.825Z,23.80
2018-04-25T15:57:28.424Z,23.80
2018-04-25T15:59:54.760Z,23.80
2018-04-25T16:02:22.291Z,23.70
2018-04-25T16:04:49.028Z,23.70
2018-04-25T16:07:15.817Z,23.80
2018-04-25T16:09:42.010Z,23.70
2018-04-25T16:12:09.051Z,23.60
2018-04-25T16:14:35.266Z,23.60
2018-04-25T16:17:02.435Z,23.60
2018-04-25T16:19:29.459Z,23.40
2018-04-25T16:21:56.364Z,23.40
2018-04-25T16:24:23.097Z,23.40
2018-04-25T16:26:50.138Z,23.30
2018-04-25T16:29:16.327Z,23.20
2018-04-25T16:31:43.974Z,23.10
2018-04-25T16:34:11.097Z,23.10
2018-04-25T16:36:39.110Z,23.00
2018-04-25T16:39:05.364Z,23.00
2018-04-25T16:41:31.655Z,22.90
2018-04-25T16:43:57.902Z,22.80
2018-04-25T16:46:25.484Z,22.60
2018-04-25T16:48:53.571Z,22.50
2018-04-25T16:51:19.756Z,22.50
2018-04-25T16:53:46.946Z,22.40
2018-04-25T16:56:14.797Z,22.20
2018-04-25T16:58:41.318Z,22.20
2018-04-25T17:01:08.882Z,22.10
2018-04-25T17:03:35.091Z,22.10
2018-04-25T17:06:01.284Z,22.10
2018-04-25T17:08:28.258Z,22.00
2018-04-25T17:10:55.476Z,21.90
2018-04-25T17:13:22.269Z,21.90
2018-04-25T17:15:49.289Z,21.80
2018-04-25T17:18:16.484Z,21.80
2018-04-25T17:20:43.272Z,21.70
2018-04-25T17:23:09.990Z,21.60
2018-04-25T17:25:36.351Z,21.50
2018-04-25T17:28:02.765Z,21.50
2018-04-25T17:30:30.218Z,21.30
2018-04-25T17:32:56.681Z,21.30
2018-04-25T17:35:22.969Z,21.20
2018-04-25T17:37:49.168Z,21.20
2018-04-25T17:40:15.537Z,21.10
2018-04-25T17:42:42.024Z,21.00
2018-04-25T17:45:08.909Z,21.00
2018-04-25T17:47:36.579Z,21.00
2018-04-25T17:50:03.842Z,21.00
2018-04-25T17:52:31.293Z,20.90
2018-04-25T17:54:58.046Z,20.80
2018-04-25T17:57:25.054Z,20.80
2018-04-25T17:59:53.775Z,20.80
2018-04-25T18:02:21.405Z,20.70
2018-04-25T18:04:49.038Z,20.70
2018-04-25T18:07:15.808Z,20.60
2018-04-25T18:09:42.266Z,20.70
2018-04-25T18:12:09.224Z,20.60
2018-04-25T18:14:36.123Z,20.60
2018-04-25T18:17:02.549Z,20.50
2018-04-25T18:19:28.660Z,20.50
2018-04-25T18:22:02.499Z,20.30
2018-04-25T18:24:29.279Z,20.20
2018-04-25T18:26:55.652Z,20.30
2018-04-25T18:29:22.862Z,20.10
2018-04-25T18:31:49.852Z,20.00
2018-04-25T18:34:16.416Z,20.00
2018-04-25T18:36:42.657Z,19.90
2018-04-25T18:39:09.185Z,19.90
2018-04-25T18:41:36.253Z,19.90
2018-04-25T18:44:04.007Z,19.90
2018-04-25T18:46:30.996Z,19.90
2018-04-25T18:48:57.328Z,19.90
2018-04-25T18:51:24.750Z,20.00
2018-04-25T18:53:50.956Z,19.90
2018-04-25T18:56:17.257Z,19.90
2018-04-25T18:58:43.991Z,19.90
2018-04-25T19:01:10.984Z,19.80
2018-04-25T19:03:37.320Z,19.80
2018-04-25T19:06:04.155Z,19.80
2018-04-25T19:08:30.380Z,19.70
2018-04-25T19:10:56.589Z,19.70
2018-04-25T19:13:22.777Z,19.80
2018-04-25T19:15:48.981Z,19.70
2018-04-25T19:18:15.919Z,19.60
2018-04-25T19:20:43.433Z,19.70
2018-04-25T19:23:10.179Z,19.70
2018-04-25T19:25:36.928Z,19.70
2018-04-25T19:28:03.691Z,19.70
2018-04-25T19:30:29.903Z,19.70
2018-04-25T19:32:56.622Z,19.60
2018-04-25T19:35:22.833Z,19.50
2018-04-25T19:37:49.656Z,19.40
2018-04-25T19:40:17.602Z,19.30
2018-04-25T19:42:45.217Z,19.30
2018-04-25T19:45:11.498Z,19.30
2018-04-25T19:47:38.978Z,19.30
2018-04-25T19:50:05.509Z,19.30
2018-04-25T19:52:33.568Z,19.20
2018-04-25T19:55:01.130Z,19.30
2018-04-25T19:57:28.544Z,19.30
2018-04-25T19:59:56.115Z,19.20
2018-04-25T20:02:22.305Z,19.30
2018-04-25T20:04:49.249Z,19.30
2018-04-25T20:07:16.351Z,19.30
2018-04-25T20:09:44.260Z,19.10
2018-04-25T20:12:10.972Z,19.00
2018-04-25T20:14:38.064Z,18.90
2018-04-25T20:17:04.318Z,18.90
2018-04-25T20:19:31.507Z,18.80
2018-04-25T20:21:57.793Z,18.70
2018-04-25T20:24:24.541Z,18.60
2018-04-25T20:26:51.258Z,18.50
2018-04-25T20:29:17.807Z,18.40
2018-04-25T20:31:45.469Z,18.40
2018-04-25T20:34:11.688Z,18.40
2018-04-25T20:36:38.258Z,18.30
2018-04-25T20:39:05.917Z,18.30
2018-04-25T20:41:32.902Z,18.20
2018-04-25T20:44:00.160Z,18.10
2018-04-25T20:46:26.339Z,18.20
2018-04-25T20:48:54.302Z,18.20
2018-04-25T20:51:21.036Z,18.20
2018-04-25T20:53:47.845Z,18.20
2018-04-25T20:56:15.795Z,18.00
2018-04-25T20:58:42.469Z,17.90
2018-04-25T21:01:10.179Z,17.90
2018-04-25T21:03:36.981Z,17.90
2018-04-25T21:06:03.765Z,17.90
2018-04-25T21:08:30.310Z,17.90
2018-04-25T21:10:56.607Z,17.80
2018-04-25T21:13:23.606Z,17.80
2018-04-25T21:15:50.049Z,17.80
2018-04-25T21:18:16.804Z,17.80
2018-04-25T21:20:44.019Z,17.90
2018-04-25T21:23:10.849Z,17.90
2018-04-25T21:25:37.373Z,17.80
2018-04-25T21:28:05.199Z,17.70
2018-04-25T21:30:32.359Z,17.60
2018-04-25T21:32:59.084Z,17.70
2018-04-25T21:35:26.208Z,17.70
2018-04-25T21:37:52.637Z,17.60
2018-04-25T21:40:19.027Z,17.60
2018-04-25T21:42:46.527Z,17.50
2018-04-25T21:45:13.794Z,17.50
2018-04-25T21:47:40.063Z,17.60
2018-04-25T21:50:07.553Z,17.50
2018-04-25T21:52:33.855Z,17.50
2018-04-25T21:55:00.952Z,17.40
2018-04-25T21:57:27.296Z,17.40
2018-04-25T21:59:54.583Z,17.40
2018-04-25T22:02:21.598Z,17.50
2018-04-25T22:04:49.409Z,17.40
2018-04-25T22:07:16.176Z,17.50
2018-04-25T22:09:42.949Z,17.50
2018-04-25T22:12:09.486Z,17.50
2018-04-25T22:14:37.436Z,17.30
2018-04-25T22:17:04.557Z,17.30
2018-04-25T22:19:30.743Z,17.40
2018-04-25T22:21:58.679Z,17.30
2018-04-25T22:24:25.911Z,17.30
2018-04-25T22:26:52.659Z,17.40
2018-04-25T22:29:19.162Z,17.30
2018-04-25T22:31:46.542Z,17.20
2018-04-25T22:34:13.559Z,17.20
2018-04-25T22:36:40.520Z,17.20
2018-04-25T22:39:06.745Z,17.20
2018-04-25T22:41:33.200Z,17.30
2018-04-25T22:44:00.220Z,17.20
2018-04-25T22:46:27.017Z,17.10
2018-04-25T22:48:53.262Z,17.20
2018-04-25T22:51:20.917Z,17.20
2018-04-25T22:53:47.685Z,17.20
2018-04-25T22:56:14.426Z,17.30
2018-04-25T22:58:40.658Z,17.20
2018-04-25T23:01:07.513Z,17.10
2018-04-25T23:03:33.701Z,17.00
2018-04-25T23:06:01.349Z,16.70
2018-04-25T23:08:28.029Z,16.70
2018-04-25T23:10:55.462Z,16.50
2018-04-25T23:13:21.925Z,16.50
2018-04-25T23:15:49.117Z,16.50
2018-04-25T23:18:15.886Z,16.40
2018-04-25T23:20:42.662Z,16.50
2018-04-25T23:23:09.886Z,16.60
2018-04-25T23:25:36.996Z,16.60
2018-04-25T23:28:04.364Z,16.60
2018-04-25T23:30:31.707Z,16.60
2018-04-25T23:32:58.666Z,16.70
2018-04-25T23:35:25.532Z,16.70
2018-04-25T23:37:53.074Z,16.70
2018-04-25T23:40:20.117Z,16.70
2018-04-25T23:42:47.379Z,16.70
2018-04-25T23:45:14.345Z,16.60
2018-04-25T23:47:40.575Z,16.60
2018-04-25T23:50:06.819Z,16.60
2018-04-25T23:52:33.825Z,16.70
2018-04-25T23:55:01.365Z,16.60
2018-04-25T23:57:28.062Z,16.60
2018-04-25T23:59:54.263Z,16.60
